sensor_id;sensor_type;location;lat;lon;timestamp;P1;durP1;ratioP1;P2;durP2;ratioP2
69323;SDS011;56470;47.350;8.718;2022-09-13T00:00:38;2.43;;;1.73;;
69323;SDS011;56470;47.350;8.718;2022-09-13T00:03:05;4.05;;;1.77;;
69323;SDS011;56470;47.350;8.718;2022-09-13T00:05:31;2.88;;;1.75;;
69323;SDS011;56470;47.350;8.718;2022-09-13T00:07:56;4.00;;;2.30;;
69323;SDS011;56470;47.350;8.718;2022-09-13T00:10:40;3.60;;;1.90;;
69323;SDS011;56470;47.350;8.718;2022-09-13T00:13:39;2.80;;;1.90;;
69323;SDS011;56470;47.350;8.718;2022-09-13T00:19:16;6.30;;;2.25;;
69323;SDS011;56470;47.350;8.718;2022-09-13T00:21:42;2.90;;;1.77;;
69323;SDS011;56470;47.350;8.718;2022-09-13T00:24:07;5.13;;;2.13;;
69323;SDS011;56470;47.350;8.718;2022-09-13T00:26:32;4.90;;;2.00;;
69323;SDS011;56470;47.350;8.718;2022-09-13T00:28:58;4.30;;;1.92;;
69323;SDS011;56470;47.350;8.718;2022-09-13T00:31:24;3.83;;;1.77;;
69323;SDS011;56470;47.350;8.718;2022-09-13T00:33:51;3.10;;;1.70;;
69323;SDS011;56470;47.350;8.718;2022-09-13T00:36:17;4.60;;;1.70;;
69323;SDS011;56470;47.350;8.718;2022-09-13T00:38:42;3.03;;;1.77;;
69323;SDS011;56470;47.350;8.718;2022-09-13T00:41:12;5.23;;;2.43;;
69323;SDS011;56470;47.350;8.718;2022-09-13T00:43:41;2.92;;;2.00;;
69323;SDS011;56470;47.350;8.718;2022-09-13T00:46:06;4.00;;;2.35;;
69323;SDS011;56470;47.350;8.718;2022-09-13T00:48:32;4.10;;;2.00;;
69323;SDS011;56470;47.350;8.718;2022-09-13T00:50:59;2.72;;;1.92;;
69323;SDS011;56470;47.350;8.718;2022-09-13T00:53:27;2.80;;;1.80;;
69323;SDS011;56470;47.350;8.718;2022-09-13T00:56:07;5.63;;;2.13;;
69323;SDS011;56470;47.350;8.718;2022-09-13T00:58:36;5.13;;;2.20;;
69323;SDS011;56470;47.350;8.718;2022-09-13T01:01:08;2.97;;;1.70;;
69323;SDS011;56470;47.350;8.718;2022-09-13T01:03:36;2.92;;;1.98;;
69323;SDS011;56470;47.350;8.718;2022-09-13T01:06:08;3.28;;;1.88;;
69323;SDS011;56470;47.350;8.718;2022-09-13T01:08:36;3.65;;;2.05;;
69323;SDS011;56470;47.350;8.718;2022-09-13T01:11:05;4.00;;;2.08;;
69323;SDS011;56470;47.350;8.718;2022-09-13T01:13:37;7.50;;;2.00;;
69323;SDS011;56470;47.350;8.718;2022-09-13T01:16:03;4.88;;;1.52;;
69323;SDS011;56470;47.350;8.718;2022-09-13T01:18:29;3.30;;;1.77;;
69323;SDS011;56470;47.350;8.718;2022-09-13T01:21:12;2.83;;;2.27;;
69323;SDS011;56470;47.350;8.718;2022-09-13T01:37:18;4.55;;;2.40;;
69323;SDS011;56470;47.350;8.718;2022-09-13T01:39:49;2.13;;;1.58;;
69323;SDS011;56470;47.350;8.718;2022-09-13T01:52:17;3.55;;;2.17;;
69323;SDS011;56470;47.350;8.718;2022-09-13T01:55:37;3.22;;;1.80;;
69323;SDS011;56470;47.350;8.718;2022-09-13T02:01:00;3.10;;;2.47;;
69323;SDS011;56470;47.350;8.718;2022-09-13T02:03:46;6.13;;;2.30;;
69323;SDS011;56470;47.350;8.718;2022-09-13T02:06:27;5.45;;;2.30;;
69323;SDS011;56470;47.350;8.718;2022-09-13T02:08:58;3.38;;;1.77;;
69323;SDS011;56470;47.350;8.718;2022-09-13T02:11:27;2.80;;;1.70;;
69323;SDS011;56470;47.350;8.718;2022-09-13T02:14:06;3.07;;;1.80;;
69323;SDS011;56470;47.350;8.718;2022-09-13T02:16:38;3.03;;;1.73;;
69323;SDS011;56470;47.350;8.718;2022-09-13T02:19:13;3.10;;;1.90;;
69323;SDS011;56470;47.350;8.718;2022-09-13T02:21:43;3.13;;;1.75;;
69323;SDS011;56470;47.350;8.718;2022-09-13T02:24:13;4.20;;;1.42;;
69323;SDS011;56470;47.350;8.718;2022-09-13T02:26:42;5.83;;;1.90;;
69323;SDS011;56470;47.350;8.718;2022-09-13T02:29:11;3.50;;;1.70;;
69323;SDS011;56470;47.350;8.718;2022-09-13T02:31:43;5.35;;;1.67;;
69323;SDS011;56470;47.350;8.718;2022-09-13T02:34:21;3.38;;;1.77;;
69323;SDS011;56470;47.350;8.718;2022-09-13T02:36:49;3.20;;;1.80;;
69323;SDS011;56470;47.350;8.718;2022-09-13T02:39:17;2.90;;;1.50;;
69323;SDS011;56470;47.350;8.718;2022-09-13T02:44:45;3.75;;;1.80;;
69323;SDS011;56470;47.350;8.718;2022-09-13T02:47:28;5.72;;;1.52;;
69323;SDS011;56470;47.350;8.718;2022-09-13T02:55:25;3.30;;;1.60;;
69323;SDS011;56470;47.350;8.718;2022-09-13T03:00:24;3.08;;;1.58;;
69323;SDS011;56470;47.350;8.718;2022-09-13T03:02:50;2.92;;;1.70;;
69323;SDS011;56470;47.350;8.718;2022-09-13T03:05:18;3.30;;;1.60;;
69323;SDS011;56470;47.350;8.718;2022-09-13T03:07:43;3.15;;;2.17;;
69323;SDS011;56470;47.350;8.718;2022-09-13T03:10:10;4.13;;;1.80;;
69323;SDS011;56470;47.350;8.718;2022-09-13T03:23:51;4.20;;;2.25;;
69323;SDS011;56470;47.350;8.718;2022-09-13T03:26:46;2.40;;;1.80;;
69323;SDS011;56470;47.350;8.718;2022-09-13T03:29:40;2.95;;;1.80;;
69323;SDS011;56470;47.350;8.718;2022-09-13T03:35:26;3.03;;;1.95;;
69323;SDS011;56470;47.350;8.718;2022-09-13T03:43:00;4.13;;;2.00;;
69323;SDS011;56470;47.350;8.718;2022-09-13T03:45:40;3.47;;;1.70;;
69323;SDS011;56470;47.350;8.718;2022-09-13T03:48:09;3.55;;;1.80;;
69323;SDS011;56470;47.350;8.718;2022-09-13T03:50:36;4.10;;;1.60;;
69323;SDS011;56470;47.350;8.718;2022-09-13T03:53:04;3.20;;;1.70;;
69323;SDS011;56470;47.350;8.718;2022-09-13T03:55:33;3.20;;;1.40;;
69323;SDS011;56470;47.350;8.718;2022-09-13T03:58:03;3.30;;;1.67;;
69323;SDS011;56470;47.350;8.718;2022-09-13T04:00:29;3.37;;;1.73;;
69323;SDS011;56470;47.350;8.718;2022-09-13T04:02:54;2.70;;;2.23;;
69323;SDS011;56470;47.350;8.718;2022-09-13T04:05:19;3.20;;;1.70;;
69323;SDS011;56470;47.350;8.718;2022-09-13T04:07:45;3.65;;;1.90;;
69323;SDS011;56470;47.350;8.718;2022-09-13T04:10:10;4.80;;;2.13;;
69323;SDS011;56470;47.350;8.718;2022-09-13T04:12:36;3.65;;;1.95;;
69323;SDS011;56470;47.350;8.718;2022-09-13T04:15:02;2.13;;;1.70;;
69323;SDS011;56470;47.350;8.718;2022-09-13T04:17:28;4.80;;;1.70;;
69323;SDS011;56470;47.350;8.718;2022-09-13T04:19:53;5.87;;;2.17;;
69323;SDS011;56470;47.350;8.718;2022-09-13T04:22:19;7.17;;;3.33;;
69323;SDS011;56470;47.350;8.718;2022-09-13T04:24:44;6.50;;;2.30;;
69323;SDS011;56470;47.350;8.718;2022-09-13T04:27:10;5.27;;;2.27;;
69323;SDS011;56470;47.350;8.718;2022-09-13T04:29:36;6.25;;;2.83;;
69323;SDS011;56470;47.350;8.718;2022-09-13T04:32:02;5.23;;;2.13;;
69323;SDS011;56470;47.350;8.718;2022-09-13T04:34:27;6.60;;;2.50;;
69323;SDS011;56470;47.350;8.718;2022-09-13T04:36:53;4.30;;;2.20;;
69323;SDS011;56470;47.350;8.718;2022-09-13T04:39:18;3.57;;;2.10;;
69323;SDS011;56470;47.350;8.718;2022-09-13T04:41:45;4.72;;;2.42;;
69323;SDS011;56470;47.350;8.718;2022-09-13T04:44:12;3.40;;;1.83;;
69323;SDS011;56470;47.350;8.718;2022-09-13T04:46:38;2.97;;;1.70;;
69323;SDS011;56470;47.350;8.718;2022-09-13T04:49:08;3.47;;;1.90;;
69323;SDS011;56470;47.350;8.718;2022-09-13T04:51:34;4.57;;;1.42;;
69323;SDS011;56470;47.350;8.718;2022-09-13T04:54:00;3.17;;;1.83;;
69323;SDS011;56470;47.350;8.718;2022-09-13T04:56:25;2.87;;;1.60;;
69323;SDS011;56470;47.350;8.718;2022-09-13T04:58:51;2.95;;;1.30;;
69323;SDS011;56470;47.350;8.718;2022-09-13T05:01:18;3.20;;;1.67;;
69323;SDS011;56470;47.350;8.718;2022-09-13T05:03:43;3.43;;;1.60;;
69323;SDS011;56470;47.350;8.718;2022-09-13T05:06:10;4.30;;;1.98;;
69323;SDS011;56470;47.350;8.718;2022-09-13T05:08:37;3.50;;;1.87;;
69323;SDS011;56470;47.350;8.718;2022-09-13T05:11:03;4.90;;;1.83;;
69323;SDS011;56470;47.350;8.718;2022-09-13T05:13:29;4.68;;;2.22;;
69323;SDS011;56470;47.350;8.718;2022-09-13T05:15:58;2.92;;;1.95;;
69323;SDS011;56470;47.350;8.718;2022-09-13T05:18:25;3.73;;;1.97;;
69323;SDS011;56470;47.350;8.718;2022-09-13T05:20:54;6.22;;;2.10;;
69323;SDS011;56470;47.350;8.718;2022-09-13T05:23:21;5.05;;;2.08;;
69323;SDS011;56470;47.350;8.718;2022-09-13T05:26:01;8.23;;;2.22;;
69323;SDS011;56470;47.350;8.718;2022-09-13T05:28:29;5.20;;;2.22;;
69323;SDS011;56470;47.350;8.718;2022-09-13T05:31:00;6.63;;;2.47;;
69323;SDS011;56470;47.350;8.718;2022-09-13T05:33:28;6.10;;;2.63;;
69323;SDS011;56470;47.350;8.718;2022-09-13T05:35:55;4.22;;;2.13;;
69323;SDS011;56470;47.350;8.718;2022-09-13T05:38:20;6.13;;;2.10;;
69323;SDS011;56470;47.350;8.718;2022-09-13T05:40:46;3.50;;;2.10;;
69323;SDS011;56470;47.350;8.718;2022-09-13T05:43:12;3.70;;;2.00;;
69323;SDS011;56470;47.350;8.718;2022-09-13T05:45:39;5.80;;;2.53;;
69323;SDS011;56470;47.350;8.718;2022-09-13T05:48:05;5.15;;;2.40;;
69323;SDS011;56470;47.350;8.718;2022-09-13T05:50:30;9.53;;;2.47;;
69323;SDS011;56470;47.350;8.718;2022-09-13T05:52:55;6.07;;;2.67;;
69323;SDS011;56470;47.350;8.718;2022-09-13T05:55:21;5.20;;;1.90;;
69323;SDS011;56470;47.350;8.718;2022-09-13T05:57:48;6.70;;;2.63;;
69323;SDS011;56470;47.350;8.718;2022-09-13T06:00:14;6.83;;;2.83;;
69323;SDS011;56470;47.350;8.718;2022-09-13T06:02:40;8.55;;;2.95;;
69323;SDS011;56470;47.350;8.718;2022-09-13T06:05:07;4.22;;;2.30;;
69323;SDS011;56470;47.350;8.718;2022-09-13T06:07:34;6.93;;;2.28;;
69323;SDS011;56470;47.350;8.718;2022-09-13T06:09:59;4.63;;;2.37;;
69323;SDS011;56470;47.350;8.718;2022-09-13T06:12:24;4.63;;;2.53;;
69323;SDS011;56470;47.350;8.718;2022-09-13T06:14:50;3.97;;;1.70;;
69323;SDS011;56470;47.350;8.718;2022-09-13T06:17:15;5.43;;;2.20;;
69323;SDS011;56470;47.350;8.718;2022-09-13T06:19:41;8.67;;;1.97;;
69323;SDS011;56470;47.350;8.718;2022-09-13T06:22:06;6.40;;;2.57;;
69323;SDS011;56470;47.350;8.718;2022-09-13T06:24:31;5.23;;;2.50;;
69323;SDS011;56470;47.350;8.718;2022-09-13T06:26:57;7.40;;;2.07;;
69323;SDS011;56470;47.350;8.718;2022-09-13T06:29:22;3.13;;;1.77;;
69323;SDS011;56470;47.350;8.718;2022-09-13T06:31:47;4.27;;;2.30;;
69323;SDS011;56470;47.350;8.718;2022-09-13T06:34:13;5.97;;;1.55;;
69323;SDS011;56470;47.350;8.718;2022-09-13T06:36:40;4.37;;;1.80;;
69323;SDS011;56470;47.350;8.718;2022-09-13T06:39:05;4.53;;;1.88;;
69323;SDS011;56470;47.350;8.718;2022-09-13T06:41:31;3.93;;;1.97;;
69323;SDS011;56470;47.350;8.718;2022-09-13T06:43:57;3.03;;;1.60;;
69323;SDS011;56470;47.350;8.718;2022-09-13T06:46:26;4.97;;;1.67;;
69323;SDS011;56470;47.350;8.718;2022-09-13T06:48:53;3.60;;;1.80;;
69323;SDS011;56470;47.350;8.718;2022-09-13T06:51:20;3.67;;;1.50;;
69323;SDS011;56470;47.350;8.718;2022-09-13T06:53:48;3.60;;;1.88;;
69323;SDS011;56470;47.350;8.718;2022-09-13T06:56:17;3.80;;;1.40;;
69323;SDS011;56470;47.350;8.718;2022-09-13T06:58:49;6.63;;;1.30;;
69323;SDS011;56470;47.350;8.718;2022-09-13T07:01:19;4.95;;;1.70;;
69323;SDS011;56470;47.350;8.718;2022-09-13T07:06:16;7.03;;;2.72;;
69323;SDS011;56470;47.350;8.718;2022-09-13T07:08:44;4.40;;;1.40;;
69323;SDS011;56470;47.350;8.718;2022-09-13T07:11:11;7.15;;;1.85;;
69323;SDS011;56470;47.350;8.718;2022-09-13T07:13:37;6.55;;;2.08;;
69323;SDS011;56470;47.350;8.718;2022-09-13T07:16:04;3.60;;;1.65;;
69323;SDS011;56470;47.350;8.718;2022-09-13T07:18:33;8.38;;;1.70;;
69323;SDS011;56470;47.350;8.718;2022-09-13T07:21:05;3.90;;;1.50;;
69323;SDS011;56470;47.350;8.718;2022-09-13T07:23:33;8.98;;;1.55;;
69323;SDS011;56470;47.350;8.718;2022-09-13T07:26:00;3.80;;;1.47;;
69323;SDS011;56470;47.350;8.718;2022-09-13T07:28:30;12.45;;;2.20;;
69323;SDS011;56470;47.350;8.718;2022-09-13T07:31:08;6.85;;;1.67;;
69323;SDS011;56470;47.350;8.718;2022-09-13T07:33:34;3.45;;;1.30;;
69323;SDS011;56470;47.350;8.718;2022-09-13T07:36:01;6.72;;;1.60;;
69323;SDS011;56470;47.350;8.718;2022-09-13T07:38:30;3.20;;;1.37;;
69323;SDS011;56470;47.350;8.718;2022-09-13T07:41:06;3.10;;;0.98;;
69323;SDS011;56470;47.350;8.718;2022-09-13T07:43:35;6.18;;;1.35;;
69323;SDS011;56470;47.350;8.718;2022-09-13T07:46:02;3.03;;;1.00;;
69323;SDS011;56470;47.350;8.718;2022-09-13T07:48:29;4.90;;;1.10;;
69323;SDS011;56470;47.350;8.718;2022-09-13T07:51:03;1.90;;;1.10;;
69323;SDS011;56470;47.350;8.718;2022-09-13T07:53:31;8.93;;;1.60;;
69323;SDS011;56470;47.350;8.718;2022-09-13T07:56:08;6.30;;;1.75;;
69323;SDS011;56470;47.350;8.718;2022-09-13T07:58:38;4.57;;;1.90;;
69323;SDS011;56470;47.350;8.718;2022-09-13T08:03:34;18.90;;;2.67;;
69323;SDS011;56470;47.350;8.718;2022-09-13T08:06:00;11.60;;;1.45;;
69323;SDS011;56470;47.350;8.718;2022-09-13T08:08:27;21.30;;;1.85;;
69323;SDS011;56470;47.350;8.718;2022-09-13T08:10:53;9.18;;;1.40;;
69323;SDS011;56470;47.350;8.718;2022-09-13T08:13:18;5.73;;;1.10;;
69323;SDS011;56470;47.350;8.718;2022-09-13T08:15:44;1.70;;;1.00;;
69323;SDS011;56470;47.350;8.718;2022-09-13T08:18:09;1.67;;;1.23;;
69323;SDS011;56470;47.350;8.718;2022-09-13T08:20:38;5.13;;;1.38;;
69323;SDS011;56470;47.350;8.718;2022-09-13T08:23:04;5.27;;;1.23;;
69323;SDS011;56470;47.350;8.718;2022-09-13T08:25:33;2.47;;;1.05;;
69323;SDS011;56470;47.350;8.718;2022-09-13T08:28:00;2.20;;;1.58;;
69323;SDS011;56470;47.350;8.718;2022-09-13T08:30:26;2.10;;;1.02;;
69323;SDS011;56470;47.350;8.718;2022-09-13T08:32:57;2.88;;;1.50;;
69323;SDS011;56470;47.350;8.718;2022-09-13T08:35:23;5.63;;;1.40;;
69323;SDS011;56470;47.350;8.718;2022-09-13T08:37:49;3.58;;;1.45;;
69323;SDS011;56470;47.350;8.718;2022-09-13T08:40:14;3.20;;;2.27;;
69323;SDS011;56470;47.350;8.718;2022-09-13T08:48:40;3.65;;;3.33;;
69323;SDS011;56470;47.350;8.718;2022-09-13T08:51:11;5.60;;;3.23;;
69323;SDS011;56470;47.350;8.718;2022-09-13T08:53:52;4.25;;;3.08;;
69323;SDS011;56470;47.350;8.718;2022-09-13T09:03:54;2.72;;;1.30;;
69323;SDS011;56470;47.350;8.718;2022-09-13T09:06:24;1.85;;;1.50;;
69323;SDS011;56470;47.350;8.718;2022-09-13T09:11:26;4.07;;;1.08;;
69323;SDS011;56470;47.350;8.718;2022-09-13T09:14:00;5.68;;;1.90;;
69323;SDS011;56470;47.350;8.718;2022-09-13T09:19:16;1.20;;;0.90;;
69323;SDS011;56470;47.350;8.718;2022-09-13T09:21:48;5.82;;;1.25;;
69323;SDS011;56470;47.350;8.718;2022-09-13T09:24:20;3.55;;;0.88;;
69323;SDS011;56470;47.350;8.718;2022-09-13T09:26:47;1.85;;;0.93;;
69323;SDS011;56470;47.350;8.718;2022-09-13T09:29:17;1.83;;;1.13;;
69323;SDS011;56470;47.350;8.718;2022-09-13T09:37:35;18.58;;;1.65;;
69323;SDS011;56470;47.350;8.718;2022-09-13T09:40:02;1.90;;;1.20;;
69323;SDS011;56470;47.350;8.718;2022-09-13T09:42:42;18.03;;;1.47;;
69323;SDS011;56470;47.350;8.718;2022-09-13T09:47:59;25.80;;;2.42;;
69323;SDS011;56470;47.350;8.718;2022-09-13T09:50:35;13.02;;;2.13;;
69323;SDS011;56470;47.350;8.718;2022-09-13T09:55:45;16.30;;;2.57;;
69323;SDS011;56470;47.350;8.718;2022-09-13T09:58:14;5.47;;;1.00;;
69323;SDS011;56470;47.350;8.718;2022-09-13T10:00:49;5.43;;;1.60;;
69323;SDS011;56470;47.350;8.718;2022-09-13T10:03:18;4.82;;;1.55;;
69323;SDS011;56470;47.350;8.718;2022-09-13T10:05:44;3.90;;;1.77;;
69323;SDS011;56470;47.350;8.718;2022-09-13T10:08:23;2.10;;;1.17;;
69323;SDS011;56470;47.350;8.718;2022-09-13T10:10:53;2.60;;;1.30;;
69323;SDS011;56470;47.350;8.718;2022-09-13T10:13:21;2.67;;;1.30;;
69323;SDS011;56470;47.350;8.718;2022-09-13T10:16:01;3.88;;;1.52;;
69323;SDS011;56470;47.350;8.718;2022-09-13T10:18:31;3.05;;;1.40;;
69323;SDS011;56470;47.350;8.718;2022-09-13T10:21:06;4.13;;;1.30;;
69323;SDS011;56470;47.350;8.718;2022-09-13T10:23:35;3.33;;;1.38;;
69323;SDS011;56470;47.350;8.718;2022-09-13T10:26:08;6.65;;;1.70;;
69323;SDS011;56470;47.350;8.718;2022-09-13T10:28:40;2.30;;;1.15;;
69323;SDS011;56470;47.350;8.718;2022-09-13T10:31:11;2.17;;;1.20;;
69323;SDS011;56470;47.350;8.718;2022-09-13T10:34:01;2.63;;;1.17;;
69323;SDS011;56470;47.350;8.718;2022-09-13T10:36:33;4.03;;;1.42;;
69323;SDS011;56470;47.350;8.718;2022-09-13T10:39:00;2.58;;;1.27;;
69323;SDS011;56470;47.350;8.718;2022-09-13T10:41:30;3.30;;;1.48;;
69323;SDS011;56470;47.350;8.718;2022-09-13T10:44:01;8.80;;;2.78;;
69323;SDS011;56470;47.350;8.718;2022-09-13T10:46:30;5.93;;;1.90;;
69323;SDS011;56470;47.350;8.718;2022-09-13T10:48:58;4.43;;;1.60;;
69323;SDS011;56470;47.350;8.718;2022-09-13T10:54:08;1.73;;;0.80;;
69323;SDS011;56470;47.350;8.718;2022-09-13T10:56:44;2.75;;;1.30;;
69323;SDS011;56470;47.350;8.718;2022-09-13T10:59:27;2.83;;;1.15;;
69323;SDS011;56470;47.350;8.718;2022-09-13T11:04:42;5.93;;;1.63;;
69323;SDS011;56470;47.350;8.718;2022-09-13T11:10:23;7.03;;;0.90;;
69323;SDS011;56470;47.350;8.718;2022-09-13T11:13:16;5.53;;;1.10;;
69323;SDS011;56470;47.350;8.718;2022-09-13T11:21:40;3.33;;;1.35;;
69323;SDS011;56470;47.350;8.718;2022-09-13T11:30:20;1.60;;;1.20;;
69323;SDS011;56470;47.350;8.718;2022-09-13T11:35:45;4.65;;;1.20;;
69323;SDS011;56470;47.350;8.718;2022-09-13T11:38:34;1.55;;;1.13;;
69323;SDS011;56470;47.350;8.718;2022-09-13T11:57:54;4.32;;;1.27;;
69323;SDS011;56470;47.350;8.718;2022-09-13T12:00:27;13.13;;;1.70;;
69323;SDS011;56470;47.350;8.718;2022-09-13T12:02:58;28.17;;;2.20;;
69323;SDS011;56470;47.350;8.718;2022-09-13T12:05:47;8.57;;;1.73;;
69323;SDS011;56470;47.350;8.718;2022-09-13T12:08:23;8.13;;;1.48;;
69323;SDS011;56470;47.350;8.718;2022-09-13T12:11:03;4.10;;;1.35;;
69323;SDS011;56470;47.350;8.718;2022-09-13T12:13:41;5.50;;;1.10;;
69323;SDS011;56470;47.350;8.718;2022-09-13T12:16:12;12.52;;;1.20;;
69323;SDS011;56470;47.350;8.718;2022-09-13T12:18:45;4.22;;;1.48;;
69323;SDS011;56470;47.350;8.718;2022-09-13T12:21:17;22.65;;;1.80;;
69323;SDS011;56470;47.350;8.718;2022-09-13T12:32:07;16.42;;;2.60;;
69323;SDS011;56470;47.350;8.718;2022-09-13T12:34:39;28.80;;;3.13;;
69323;SDS011;56470;47.350;8.718;2022-09-13T12:42:25;9.02;;;1.88;;
69323;SDS011;56470;47.350;8.718;2022-09-13T12:55:48;9.02;;;1.85;;
69323;SDS011;56470;47.350;8.718;2022-09-13T13:01:25;3.67;;;1.20;;
69323;SDS011;56470;47.350;8.718;2022-09-13T13:04:02;5.28;;;1.40;;
69323;SDS011;56470;47.350;8.718;2022-09-13T13:11:55;10.02;;;1.70;;
69323;SDS011;56470;47.350;8.718;2022-09-13T13:19:59;21.10;;;3.67;;
69323;SDS011;56470;47.350;8.718;2022-09-13T13:27:57;9.75;;;1.80;;
69323;SDS011;56470;47.350;8.718;2022-09-13T13:33:14;6.80;;;1.42;;
69323;SDS011;56470;47.350;8.718;2022-09-13T13:35:42;2.72;;;1.13;;
69323;SDS011;56470;47.350;8.718;2022-09-13T13:38:42;16.30;;;1.60;;
69323;SDS011;56470;47.350;8.718;2022-09-13T13:41:07;8.23;;;1.40;;
69323;SDS011;56470;47.350;8.718;2022-09-13T13:43:58;7.53;;;1.45;;
69323;SDS011;56470;47.350;8.718;2022-09-13T13:46:25;5.93;;;1.23;;
69323;SDS011;56470;47.350;8.718;2022-09-13T13:48:55;5.28;;;1.17;;
69323;SDS011;56470;47.350;8.718;2022-09-13T13:51:41;4.55;;;1.23;;
69323;SDS011;56470;47.350;8.718;2022-09-13T13:54:27;5.37;;;2.00;;
69323;SDS011;56470;47.350;8.718;2022-09-13T13:56:54;2.78;;;1.13;;
69323;SDS011;56470;47.350;8.718;2022-09-13T13:59:26;3.10;;;1.37;;
69323;SDS011;56470;47.350;8.718;2022-09-13T14:01:56;6.57;;;1.33;;
69323;SDS011;56470;47.350;8.718;2022-09-13T14:07:19;2.97;;;1.30;;
69323;SDS011;56470;47.350;8.718;2022-09-13T14:09:56;1.67;;;1.00;;
69323;SDS011;56470;47.350;8.718;2022-09-13T14:18:25;3.30;;;1.13;;
69323;SDS011;56470;47.350;8.718;2022-09-13T14:21:03;15.05;;;1.90;;
69323;SDS011;56470;47.350;8.718;2022-09-13T14:23:41;1.98;;;0.85;;
69323;SDS011;56470;47.350;8.718;2022-09-13T14:26:09;3.57;;;1.30;;
69323;SDS011;56470;47.350;8.718;2022-09-13T14:28:35;3.95;;;1.23;;
69323;SDS011;56470;47.350;8.718;2022-09-13T14:31:01;3.67;;;1.50;;
69323;SDS011;56470;47.350;8.718;2022-09-13T14:33:28;3.10;;;1.05;;
69323;SDS011;56470;47.350;8.718;2022-09-13T14:36:00;8.02;;;1.40;;
69323;SDS011;56470;47.350;8.718;2022-09-13T14:38:30;2.45;;;1.30;;
69323;SDS011;56470;47.350;8.718;2022-09-13T14:41:12;2.50;;;1.30;;
69323;SDS011;56470;47.350;8.718;2022-09-13T14:43:39;6.00;;;1.60;;
69323;SDS011;56470;47.350;8.718;2022-09-13T14:46:10;6.40;;;1.67;;
69323;SDS011;56470;47.350;8.718;2022-09-13T14:48:50;4.47;;;1.52;;
69323;SDS011;56470;47.350;8.718;2022-09-13T14:53:58;4.33;;;2.00;;
69323;SDS011;56470;47.350;8.718;2022-09-13T14:56:36;6.72;;;2.30;;
69323;SDS011;56470;47.350;8.718;2022-09-13T14:59:04;8.02;;;2.42;;
69323;SDS011;56470;47.350;8.718;2022-09-13T15:01:38;4.72;;;2.13;;
69323;SDS011;56470;47.350;8.718;2022-09-13T15:04:04;5.70;;;3.30;;
69323;SDS011;56470;47.350;8.718;2022-09-13T15:06:31;10.18;;;3.25;;
69323;SDS011;56470;47.350;8.718;2022-09-13T15:11:34;4.23;;;2.50;;
69323;SDS011;56470;47.350;8.718;2022-09-13T15:14:02;4.28;;;2.90;;
69323;SDS011;56470;47.350;8.718;2022-09-13T15:16:48;9.05;;;3.03;;
69323;SDS011;56470;47.350;8.718;2022-09-13T15:21:49;4.30;;;2.90;;
69323;SDS011;56470;47.350;8.718;2022-09-13T15:24:23;9.57;;;2.70;;
69323;SDS011;56470;47.350;8.718;2022-09-13T15:27:02;11.93;;;2.95;;
69323;SDS011;56470;47.350;8.718;2022-09-13T15:29:40;5.78;;;3.15;;
69323;SDS011;56470;47.350;8.718;2022-09-13T15:32:21;5.32;;;3.30;;
69323;SDS011;56470;47.350;8.718;2022-09-13T15:34:49;5.20;;;2.50;;
69323;SDS011;56470;47.350;8.718;2022-09-13T15:37:15;4.90;;;2.80;;
69323;SDS011;56470;47.350;8.718;2022-09-13T15:39:41;7.13;;;2.85;;
69323;SDS011;56470;47.350;8.718;2022-09-13T15:42:11;6.30;;;2.47;;
69323;SDS011;56470;47.350;8.718;2022-09-13T15:44:36;3.47;;;2.28;;
69323;SDS011;56470;47.350;8.718;2022-09-13T15:47:02;4.00;;;2.57;;
69323;SDS011;56470;47.350;8.718;2022-09-13T15:49:33;4.95;;;2.58;;
69323;SDS011;56470;47.350;8.718;2022-09-13T15:51:59;13.23;;;3.47;;
69323;SDS011;56470;47.350;8.718;2022-09-13T15:54:30;9.70;;;2.50;;
69323;SDS011;56470;47.350;8.718;2022-09-13T15:56:59;6.15;;;3.10;;
69323;SDS011;56470;47.350;8.718;2022-09-13T15:59:25;5.93;;;3.10;;
69323;SDS011;56470;47.350;8.718;2022-09-13T16:01:51;9.93;;;3.37;;
69323;SDS011;56470;47.350;8.718;2022-09-13T16:04:16;6.28;;;3.17;;
69323;SDS011;56470;47.350;8.718;2022-09-13T16:06:43;6.38;;;2.72;;
69323;SDS011;56470;47.350;8.718;2022-09-13T16:09:16;10.07;;;3.10;;
69323;SDS011;56470;47.350;8.718;2022-09-13T16:11:43;10.23;;;2.63;;
69323;SDS011;56470;47.350;8.718;2022-09-13T16:14:08;6.50;;;2.60;;
69323;SDS011;56470;47.350;8.718;2022-09-13T16:16:34;6.87;;;2.70;;
69323;SDS011;56470;47.350;8.718;2022-09-13T16:18:59;4.70;;;2.90;;
69323;SDS011;56470;47.350;8.718;2022-09-13T16:21:24;7.17;;;3.03;;
69323;SDS011;56470;47.350;8.718;2022-09-13T16:23:50;3.85;;;2.50;;
69323;SDS011;56470;47.350;8.718;2022-09-13T16:26:15;4.33;;;3.00;;
69323;SDS011;56470;47.350;8.718;2022-09-13T16:28:40;5.00;;;2.70;;
69323;SDS011;56470;47.350;8.718;2022-09-13T16:31:06;4.30;;;2.47;;
69323;SDS011;56470;47.350;8.718;2022-09-13T16:33:31;5.47;;;3.00;;
69323;SDS011;56470;47.350;8.718;2022-09-13T16:36:11;4.90;;;3.05;;
69323;SDS011;56470;47.350;8.718;2022-09-13T16:38:36;6.13;;;3.08;;
69323;SDS011;56470;47.350;8.718;2022-09-13T16:41:11;7.73;;;2.83;;
69323;SDS011;56470;47.350;8.718;2022-09-13T16:43:37;4.13;;;2.63;;
69323;SDS011;56470;47.350;8.718;2022-09-13T16:46:06;4.77;;;2.50;;
69323;SDS011;56470;47.350;8.718;2022-09-13T16:48:35;5.22;;;2.42;;
69323;SDS011;56470;47.350;8.718;2022-09-13T16:51:05;4.85;;;2.50;;
69323;SDS011;56470;47.350;8.718;2022-09-13T16:53:32;4.85;;;2.67;;
69323;SDS011;56470;47.350;8.718;2022-09-13T16:56:10;4.23;;;1.93;;
69323;SDS011;56470;47.350;8.718;2022-09-13T16:58:39;7.55;;;1.92;;
69323;SDS011;56470;47.350;8.718;2022-09-13T17:01:07;5.43;;;2.05;;
69323;SDS011;56470;47.350;8.718;2022-09-13T17:03:35;3.72;;;2.03;;
69323;SDS011;56470;47.350;8.718;2022-09-13T17:06:12;5.90;;;2.30;;
69323;SDS011;56470;47.350;8.718;2022-09-13T17:08:46;6.27;;;1.80;;
69323;SDS011;56470;47.350;8.718;2022-09-13T17:11:14;5.35;;;1.73;;
69323;SDS011;56470;47.350;8.718;2022-09-13T17:13:42;6.10;;;2.40;;
69323;SDS011;56470;47.350;8.718;2022-09-13T17:16:18;5.17;;;2.33;;
69323;SDS011;56470;47.350;8.718;2022-09-13T17:18:46;4.07;;;2.10;;
69323;SDS011;56470;47.350;8.718;2022-09-13T17:21:12;6.60;;;2.13;;
69323;SDS011;56470;47.350;8.718;2022-09-13T17:23:40;6.43;;;1.93;;
69323;SDS011;56470;47.350;8.718;2022-09-13T17:26:05;4.75;;;2.17;;
69323;SDS011;56470;47.350;8.718;2022-09-13T17:28:31;5.77;;;2.30;;
69323;SDS011;56470;47.350;8.718;2022-09-13T17:30:59;4.28;;;1.75;;
69323;SDS011;56470;47.350;8.718;2022-09-13T17:33:31;4.93;;;2.97;;
69323;SDS011;56470;47.350;8.718;2022-09-13T17:36:04;6.28;;;2.63;;
69323;SDS011;56470;47.350;8.718;2022-09-13T17:38:34;9.40;;;2.70;;
69323;SDS011;56470;47.350;8.718;2022-09-13T17:54:46;8.30;;;1.90;;
69323;SDS011;56470;47.350;8.718;2022-09-13T17:57:13;7.85;;;3.13;;
69323;SDS011;56470;47.350;8.718;2022-09-13T17:59:39;13.55;;;2.80;;
69323;SDS011;56470;47.350;8.718;2022-09-13T18:02:05;6.20;;;2.40;;
69323;SDS011;56470;47.350;8.718;2022-09-13T18:04:30;4.63;;;2.60;;
69323;SDS011;56470;47.350;8.718;2022-09-13T18:06:55;9.47;;;3.40;;
69323;SDS011;56470;47.350;8.718;2022-09-13T18:09:21;7.73;;;3.33;;
69323;SDS011;56470;47.350;8.718;2022-09-13T18:11:47;8.38;;;3.80;;
69323;SDS011;56470;47.350;8.718;2022-09-13T18:14:13;8.77;;;3.70;;
69323;SDS011;56470;47.350;8.718;2022-09-13T18:16:40;9.30;;;5.68;;
69323;SDS011;56470;47.350;8.718;2022-09-13T18:19:05;8.63;;;5.03;;
69323;SDS011;56470;47.350;8.718;2022-09-13T18:21:31;10.93;;;4.28;;
69323;SDS011;56470;47.350;8.718;2022-09-13T18:23:57;8.17;;;3.30;;
69323;SDS011;56470;47.350;8.718;2022-09-13T18:26:24;9.90;;;2.97;;
69323;SDS011;56470;47.350;8.718;2022-09-13T18:28:54;6.70;;;2.83;;
69323;SDS011;56470;47.350;8.718;2022-09-13T18:31:22;6.97;;;2.67;;
69323;SDS011;56470;47.350;8.718;2022-09-13T18:33:52;4.72;;;2.47;;